Time;durP1;ratioP1;P1;durP2;ratioP2;P2;SDS_P1;SDS_P2;PMS_P1;PMS_P2;Temp;Humidity;BMP_temperature;BMP_pressure;BME280_temperature;BME280_humidity;BME280_pressure;Samples;Min_cycle;Max_cycle;Signal;HPM_P1;HPM_P2
2021/05/01 00:00:06;;;;;;;20.40;13.77;;;4.10;99.90;;;;;;2090244;28;20117;-64
2021/05/01 00:01:06;;;;;;;25.23;13.13;;;4.10;99.90;;;;;;2085750;28;20029;-64
2021/05/01 00:02:10;;;;;;;23.63;14.20;;;4.10;99.90;;;;;;2085982;28;20061;-64
2021/05/01 00:03:11;;;;;;;19.25;13.57;;;4.00;99.90;;;;;;2091571;28;20028;-64
2021/05/01 00:04:12;;;;;;;18.80;14.23;;;4.00;99.90;;;;;;2085571;28;20413;-64
2021/05/01 00:05:13;;;;;;;22.17;14.27;;;4.00;99.90;;;;;;2076676;28;20022;-64
2021/05/01 00:06:14;;;;;;;19.55;13.98;;;4.00;99.90;;;;;;2084694;28;20052;-64
2021/05/01 00:07:15;;;;;;;21.98;13.45;;;3.90;99.90;;;;;;2086365;28;20108;-64
2021/05/01 00:08:15;;;;;;;23.95;16.27;;;3.90;99.90;;;;;;2084887;28;20018;-64
2021/05/01 00:09:16;;;;;;;24.88;15.70;;;3.90;99.90;;;;;;2078090;28;20022;-64
2021/05/01 00:10:17;;;;;;;33.22;16.38;;;3.90;99.90;;;;;;2082301;28;20049;-64
2021/05/01 00:11:22;;;;;;;26.95;15.52;;;4.00;99.90;;;;;;2086531;28;20638;-64
2021/05/01 00:12:22;;;;;;;25.63;15.90;;;4.00;99.90;;;;;;2086154;28;20049;-64
2021/05/01 00:13:23;;;;;;;21.08;15.48;;;4.10;99.90;;;;;;2087970;28;20025;-64
2021/05/01 00:14:26;;;;;;;26.80;15.43;;;4.20;99.90;;;;;;2084598;28;20380;-64
2021/05/01 00:15:26;;;;;;;21.05;14.38;;;4.30;99.90;;;;;;2079518;28;20045;-64
2021/05/01 00:16:28;;;;;;;26.63;14.20;;;4.30;99.90;;;;;;2083794;28;20698;-64
2021/05/01 00:17:29;;;;;;;19.85;13.73;;;4.20;99.90;;;;;;2086430;28;20090;-64
2021/05/01 00:18:29;;;;;;;22.42;13.52;;;4.20;99.90;;;;;;2088426;28;20558;-64
2021/05/01 00:19:30;;;;;;;20.77;14.25;;;4.10;99.90;;;;;;2077792;28;20037;-64
2021/05/01 00:20:31;;;;;;;20.85;13.63;;;4.10;99.90;;;;;;2088077;28;20444;-64
2021/05/01 00:21:32;;;;;;;19.67;13.93;;;4.00;99.90;;;;;;2083407;28;20029;-64
2021/05/01 00:22:33;;;;;;;29.55;16.17;;;4.00;99.90;;;;;;2085274;28;20263;-64
2021/05/01 00:23:33;;;;;;;28.65;16.58;;;4.00;99.90;;;;;;2086394;28;20032;-64
2021/05/01 00:24:34;;;;;;;32.63;17.67;;;4.00;99.90;;;;;;2086579;28;20034;-64
2021/05/01 00:25:35;;;;;;;27.77;17.73;;;4.10;99.90;;;;;;2088942;28;20147;-64
2021/05/01 00:26:36;;;;;;;24.25;17.75;;;4.20;99.90;;;;;;2085879;28;20029;-64
2021/05/01 00:27:36;;;;;;;26.90;16.98;;;4.30;99.90;;;;;;2086123;28;20028;-64
2021/05/01 00:28:41;;;;;;;28.17;16.45;;;4.40;99.90;;;;;;2084092;28;20079;-64
2021/05/01 00:29:41;;;;;;;24.05;16.88;;;4.40;99.90;;;;;;2081139;28;20108;-64
2021/05/01 00:30:42;;;;;;;24.65;16.90;;;4.50;99.90;;;;;;2081152;28;20076;-64
2021/05/01 00:31:43;;;;;;;27.13;16.27;;;4.50;99.90;;;;;;2081269;28;20018;-64
2021/05/01 00:32:43;;;;;;;24.00;17.42;;;4.50;99.90;;;;;;2081292;28;20029;-64
2021/05/01 00:33:44;;;;;;;24.75;16.83;;;4.60;99.90;;;;;;2075340;28;20029;-64
2021/05/01 00:34:45;;;;;;;27.02;17.80;;;4.60;99.90;;;;;;2077604;28;20516;-64
2021/05/01 00:35:46;;;;;;;27.13;17.15;;;4.80;99.90;;;;;;2075072;28;20054;-64
2021/05/01 00:36:46;;;;;;;24.05;16.63;;;4.80;99.90;;;;;;2080189;28;20097;-64
2021/05/01 00:37:47;;;;;;;26.17;16.48;;;4.90;99.90;;;;;;2081286;28;20414;-64
2021/05/01 00:38:48;;;;;;;21.63;15.23;;;4.90;99.90;;;;;;2081156;28;20371;-64
2021/05/01 00:39:48;;;;;;;28.50;17.33;;;4.90;99.90;;;;;;2079782;28;20557;-64
2021/05/01 00:40:49;;;;;;;21.77;16.25;;;4.90;99.90;;;;;;2092522;28;20024;-64
2021/05/01 00:41:50;;;;;;;27.33;17.23;;;4.90;99.90;;;;;;2089617;28;20021;-64
2021/05/01 00:42:51;;;;;;;22.77;15.52;;;4.90;99.90;;;;;;2080665;28;20053;-64
2021/05/01 00:43:52;;;;;;;20.75;15.10;;;4.90;99.90;;;;;;2076640;28;20029;-64
2021/05/01 00:44:52;;;;;;;24.13;13.90;;;4.90;99.90;;;;;;2076738;28;20021;-64
2021/05/01 00:45:54;;;;;;;19.77;13.02;;;4.80;99.90;;;;;;2079789;28;20417;-64
2021/05/01 00:46:54;;;;;;;24.73;14.00;;;4.70;99.90;;;;;;2080554;28;20037;-64
2021/05/01 00:47:55;;;;;;;21.90;12.73;;;4.50;99.90;;;;;;2077855;28;20658;-64
2021/05/01 00:48:56;;;;;;;21.25;13.73;;;4.30;99.90;;;;;;2076695;28;20515;-64
2021/05/01 00:49:56;;;;;;;22.13;12.98;;;4.20;99.90;;;;;;2078043;28;20018;-64
2021/05/01 00:50:58;;;;;;;22.75;14.15;;;4.00;99.90;;;;;;2078522;28;20493;-64
2021/05/01 00:51:59;;;;;;;26.42;15.00;;;3.80;99.90;;;;;;2079395;28;20025;-64
2021/05/01 00:53:01;;;;;;;21.70;14.02;;;3.70;99.90;;;;;;2077886;28;20029;-64
2021/05/01 00:54:02;;;;;;;21.05;14.90;;;3.60;99.90;;;;;;2076068;28;20516;-64
2021/05/01 00:55:05;;;;;;;23.85;14.52;;;3.40;99.90;;;;;;2076410;28;20049;-64
2021/05/01 00:56:07;;;;;;;21.67;14.63;;;3.30;99.90;;;;;;2081935;28;20022;-64
2021/05/01 00:57:08;;;;;;;;;;;3.20;99.90;;;;;;2081198;28;20052;-64
2021/05/01 00:58:11;;;;;;;22.60;15.15;;;3.10;99.90;;;;;;2080782;28;20042;-64
2021/05/01 00:59:11;;;;;;;23.27;16.20;;;3.00;99.90;;;;;;2080953;28;20113;-64
2021/05/01 01:00:37;;;;;;;24.25;15.40;;;2.90;99.90;;;;;;2080480;28;20552;-64
2021/05/01 01:01:37;;;;;;;29.80;15.63;;;2.80;99.90;;;;;;2073718;28;20069;-64
2021/05/01 01:02:38;;;;;;;22.83;15.57;;;2.70;99.90;;;;;;2079465;28;20438;-64
2021/05/01 01:03:39;;;;;;;31.60;16.30;;;2.70;99.90;;;;;;2077351;28;20032;-64
2021/05/01 01:04:40;;;;;;;26.60;15.48;;;2.60;99.90;;;;;;2080381;28;20030;-64
2021/05/01 01:05:41;;;;;;;23.23;15.43;;;2.50;99.90;;;;;;2080248;28;20031;-64
2021/05/01 01:06:41;;;;;;;25.58;16.27;;;2.50;99.90;;;;;;2081220;28;20060;-64
2021/05/01 01:07:42;;;;;;;26.33;16.75;;;2.40;99.90;;;;;;2080941;28;20014;-64
2021/05/01 01:08:44;;;;;;;25.17;15.85;;;2.50;99.90;;;;;;2081062;28;20497;-64
2021/05/01 01:09:46;;;;;;;23.35;16.23;;;2.50;99.90;;;;;;2078696;28;20080;-64
2021/05/01 01:10:47;;;;;;;23.30;15.95;;;2.50;99.90;;;;;;2078168;28;20056;-64
2021/05/01 01:11:48;;;;;;;27.17;16.98;;;2.40;99.90;;;;;;2079874;28;20033;-64
2021/05/01 01:12:48;;;;;;;27.08;16.30;;;2.40;99.90;;;;;;2080844;28;20596;-64
2021/05/01 01:13:51;;;;;;;21.63;16.30;;;2.30;99.90;;;;;;2080906;28;20021;-64
2021/05/01 01:14:51;;;;;;;24.27;15.90;;;2.30;99.90;;;;;;2081082;28;20408;-64
2021/05/01 01:15:52;;;;;;;23.10;16.23;;;2.30;99.90;;;;;;2078056;28;20029;-64
2021/05/01 01:16:53;;;;;;;22.10;14.65;;;2.30;99.90;;;;;;2072109;28;20034;-64
2021/05/01 01:17:54;;;;;;;23.95;16.45;;;2.30;99.90;;;;;;2076893;28;20100;-64
2021/05/01 01:18:55;;;;;;;22.38;16.30;;;2.30;99.90;;;;;;2072208;28;20037;-64
2021/05/01 01:19:56;;;;;;;23.35;17.00;;;2.30;99.90;;;;;;2080531;28;20025;-64
2021/05/01 01:21:00;;;;;;;23.05;16.23;;;2.20;99.90;;;;;;2077173;28;20044;-64
2021/05/01 01:22:01;;;;;;;24.80;17.20;;;2.20;99.90;;;;;;2072054;28;20370;-64
2021/05/01 01:23:02;;;;;;;26.75;17.38;;;2.20;99.90;;;;;;2072272;28;20085;-64
2021/05/01 01:24:03;;;;;;;25.83;17.05;;;2.20;99.90;;;;;;2072326;28;20076;-64
2021/05/01 01:25:04;;;;;;;24.30;17.27;;;2.20;99.90;;;;;;2072741;28;20431;-64
2021/05/01 01:26:04;;;;;;;26.27;17.10;;;2.20;99.90;;;;;;2074851;28;20048;-64
2021/05/01 01:27:07;;;;;;;30.92;18.13;;;2.20;99.90;;;;;;2075393;28;20514;-64
2021/05/01 01:28:08;;;;;;;29.23;17.23;;;2.20;99.90;;;;;;2076681;28;20025;-64
2021/05/01 01:29:13;;;;;;;30.53;18.93;;;2.10;99.90;;;;;;2079890;28;20096;-64
2021/05/01 01:30:17;;;;;;;32.53;17.77;;;2.10;99.90;;;;;;2077717;28;20321;-67
2021/05/01 01:31:18;;;;;;;26.45;17.30;;;2.10;99.90;;;;;;2079239;28;20017;-64
2021/05/01 01:32:18;;;;;;;26.48;17.75;;;2.20;99.90;;;;;;2071476;28;20025;-64
2021/05/01 01:33:19;;;;;;;26.98;18.25;;;2.10;99.90;;;;;;2079708;28;20025;-64
2021/05/01 01:34:20;;;;;;;30.90;19.95;;;2.10;99.90;;;;;;2079499;28;20520;-64
2021/05/01 01:35:21;;;;;;;28.10;18.10;;;2.10;99.90;;;;;;2079876;28;20114;-64
2021/05/01 01:36:22;;;;;;;28.92;18.80;;;2.10;99.90;;;;;;2079636;28;20084;-64
2021/05/01 01:37:23;;;;;;;31.20;19.83;;;2.10;99.90;;;;;;2072817;28;20472;-64
2021/05/01 01:38:23;;;;;;;29.85;18.20;;;2.10;99.90;;;;;;2072587;28;20026;-64
2021/05/01 01:39:24;;;;;;;27.65;18.40;;;2.10;99.90;;;;;;2072977;28;20052;-64
2021/05/01 01:40:25;;;;;;;27.42;19.08;;;2.10;99.90;;;;;;2080179;28;20025;-64
2021/05/01 01:41:27;;;;;;;25.83;18.23;;;2.10;99.90;;;;;;2080225;28;20026;-64
2021/05/01 01:42:28;;;;;;;;;;;2.00;99.90;;;;;;2080914;28;20014;-64
2021/05/01 01:43:28;;;;;;;30.08;18.83;;;2.00;99.90;;;;;;2080244;28;20011;-64
2021/05/01 01:44:29;;;;;;;38.78;19.17;;;2.00;99.90;;;;;;2079674;28;20507;-64
2021/05/01 01:45:30;;;;;;;30.02;19.23;;;2.00;99.90;;;;;;2079726;28;20018;-64
2021/05/01 01:46:32;;;;;;;32.60;20.55;;;2.10;99.90;;;;;;2078115;28;20053;-64
2021/05/01 01:47:33;;;;;;;30.83;20.30;;;2.10;99.90;;;;;;2079939;28;20017;-64
2021/05/01 01:48:34;;;;;;;30.52;21.02;;;2.10;99.90;;;;;;2077185;28;20097;-64
2021/05/01 01:49:37;;;;;;;28.00;20.23;;;2.10;99.90;;;;;;2079380;28;20029;-64
2021/05/01 01:50:38;;;;;;;30.08;19.90;;;2.00;99.90;;;;;;2079605;28;20021;-64
2021/05/01 01:51:38;;;;;;;33.03;20.70;;;2.00;99.90;;;;;;2079830;28;20104;-64
2021/05/01 01:52:40;;;;;;;31.73;20.67;;;2.00;99.90;;;;;;2080218;28;20464;-64
2021/05/01 01:53:40;;;;;;;34.85;20.92;;;2.00;99.90;;;;;;2076458;28;20064;-64
2021/05/01 01:54:41;;;;;;;33.40;21.00;;;2.00;99.90;;;;;;2072254;28;20034;-64
2021/05/01 01:55:43;;;;;;;32.58;21.85;;;2.00;99.90;;;;;;2080608;28;20025;-64
2021/05/01 01:56:44;;;;;;;33.22;21.88;;;2.00;99.90;;;;;;2074642;28;20049;-64
2021/05/01 01:57:46;;;;;;;31.83;21.25;;;2.00;99.90;;;;;;2079639;28;20029;-64
2021/05/01 01:58:47;;;;;;;31.92;22.45;;;2.00;99.90;;;;;;2080271;28;20100;-64
2021/05/01 01:59:48;;;;;;;35.58;22.23;;;2.00;99.90;;;;;;2080045;28;20501;-64
2021/05/01 02:00:50;;;;;;;32.75;21.67;;;2.00;99.90;;;;;;2071933;28;20116;-64
2021/05/01 02:01:51;;;;;;;33.05;21.63;;;2.00;99.90;;;;;;2074781;28;20048;-64
2021/05/01 02:02:53;;;;;;;32.05;21.60;;;2.00;99.90;;;;;;2072876;28;20819;-64
2021/05/01 02:03:53;;;;;;;33.55;21.38;;;1.90;99.90;;;;;;2078177;28;20083;-64
2021/05/01 02:04:54;;;;;;;29.35;20.80;;;1.90;99.90;;;;;;2079397;28;20590;-64
2021/05/01 02:05:55;;;;;;;34.78;22.17;;;1.90;99.90;;;;;;2079517;28;20033;-64
2021/05/01 02:06:55;;;;;;;34.60;22.42;;;1.90;99.90;;;;;;2075915;28;20013;-64
2021/05/01 02:07:57;;;;;;;30.30;21.17;;;1.90;99.90;;;;;;2071286;28;20706;-64
2021/05/01 02:08:57;;;;;;;32.72;22.17;;;1.90;99.90;;;;;;2075510;28;20079;-64
2021/05/01 02:09:58;;;;;;;29.15;21.10;;;1.80;99.90;;;;;;2076571;28;20386;-64
2021/05/01 02:10:59;;;;;;;35.83;22.05;;;1.80;99.90;;;;;;2080140;28;20044;-64
2021/05/01 02:12:00;;;;;;;30.75;22.38;;;1.90;99.90;;;;;;2079940;28;20029;-64
2021/05/01 02:13:01;;;;;;;31.60;22.85;;;1.80;99.90;;;;;;2080227;28;20029;-65
2021/05/01 02:14:04;;;;;;;35.53;23.50;;;1.80;99.90;;;;;;2079116;28;20032;-64
2021/05/01 02:15:11;;;;;;;38.83;24.13;;;1.80;99.90;;;;;;2079456;28;20061;-64
2021/05/01 02:16:12;;;;;;;37.08;22.10;;;1.80;99.90;;;;;;2072272;28;20108;-64
2021/05/01 02:17:13;;;;;;;31.92;22.60;;;1.80;99.90;;;;;;2071216;28;20497;-64
2021/05/01 02:18:13;;;;;;;33.78;22.65;;;1.80;99.90;;;;;;2073641;28;20217;-65
2021/05/01 02:19:14;;;;;;;31.38;22.25;;;1.80;99.90;;;;;;2074583;28;20113;-64
2021/05/01 02:20:17;;;;;;;35.10;23.15;;;1.70;99.90;;;;;;2079918;28;20021;-65
2021/05/01 02:21:18;;;;;;;35.38;23.67;;;1.70;99.90;;;;;;2074781;28;20470;-64
2021/05/01 02:22:18;;;;;;;33.22;22.20;;;1.70;99.90;;;;;;2079083;28;20033;-64
2021/05/01 02:23:19;;;;;;;33.47;22.00;;;1.70;99.90;;;;;;2077004;28;20025;-65
2021/05/01 02:24:20;;;;;;;35.17;22.40;;;1.70;99.90;;;;;;2074373;28;20050;-65
2021/05/01 02:25:21;;;;;;;39.08;22.88;;;1.60;99.90;;;;;;2079740;28;20020;-65
2021/05/01 02:26:22;;;;;;;34.58;22.38;;;1.60;99.90;;;;;;2087476;28;20017;-65
2021/05/01 02:27:23;;;;;;;35.47;22.75;;;1.60;99.90;;;;;;2087775;28;20121;-65
2021/05/01 02:28:24;;;;;;;38.75;24.48;;;1.70;99.90;;;;;;2079947;28;20156;-65
2021/05/01 02:29:24;;;;;;;32.42;22.58;;;1.60;99.90;;;;;;2076193;28;20029;-64
2021/05/01 02:30:28;;;;;;;39.05;24.15;;;1.60;99.90;;;;;;2079786;28;20488;-65
2021/05/01 02:31:29;;;;;;;35.13;22.73;;;1.60;99.90;;;;;;2073473;28;20049;-65
2021/05/01 02:32:29;;;;;;;36.10;23.80;;;1.60;99.90;;;;;;2071092;28;20018;-64
2021/05/01 02:33:30;;;;;;;35.50;23.85;;;1.60;99.90;;;;;;2079740;28;20013;-65
2021/05/01 02:34:31;;;;;;;33.25;23.73;;;1.60;99.90;;;;;;2079702;28;20088;-65
2021/05/01 02:35:34;;;;;;;31.65;22.73;;;1.60;99.90;;;;;;2076493;28;20516;-65
2021/05/01 02:36:35;;;;;;;37.85;24.20;;;1.60;99.90;;;;;;2074555;28;20397;-65
2021/05/01 02:37:36;;;;;;;36.30;24.77;;;1.60;99.90;;;;;;2071004;28;20024;-65
2021/05/01 02:38:37;;;;;;;40.80;22.90;;;1.60;99.90;;;;;;2071282;28;20496;-65
2021/05/01 02:39:38;;;;;;;38.70;23.45;;;1.60;99.90;;;;;;2074256;28;20100;-65
2021/05/01 02:40:39;;;;;;;36.95;24.17;;;1.60;99.90;;;;;;2079861;28;20025;-65
2021/05/01 02:41:39;;;;;;;35.83;23.40;;;1.60;99.90;;;;;;2077218;28;20555;-65
2021/05/01 02:42:41;;;;;;;32.45;22.23;;;1.60;99.90;;;;;;2075381;28;20449;-65
2021/05/01 02:43:42;;;;;;;33.63;22.40;;;1.60;99.90;;;;;;2076414;28;20025;-65
2021/05/01 02:44:43;;;;;;;35.40;23.60;;;1.60;99.90;;;;;;2073967;28;20439;-65
2021/05/01 02:45:44;;;;;;;35.88;24.35;;;1.60;99.90;;;;;;2079323;28;20390;-65
2021/05/01 02:46:45;;;;;;;38.05;23.75;;;1.50;99.90;;;;;;2077915;28;20021;-65
2021/05/01 02:47:46;;;;;;;41.88;23.92;;;1.50;99.90;;;;;;2079323;28;20037;-65
2021/05/01 02:48:47;;;;;;;33.80;22.20;;;1.50;99.90;;;;;;2075272;28;20022;-65
2021/05/01 02:49:47;;;;;;;33.97;23.75;;;1.50;99.90;;;;;;2078887;28;20036;-65
2021/05/01 02:50:48;;;;;;;33.83;23.70;;;1.40;99.90;;;;;;2070414;28;20018;-65
2021/05/01 02:51:49;;;;;;;34.80;22.90;;;1.40;99.90;;;;;;2079291;28;20071;-65
2021/05/01 02:52:49;;;;;;;37.47;23.08;;;1.40;99.90;;;;;;2079344;28;20021;-65
2021/05/01 02:53:50;;;;;;;36.28;24.02;;;1.30;99.90;;;;;;2076323;28;20033;-65
2021/05/01 02:54:51;;;;;;;37.90;23.23;;;1.40;99.90;;;;;;2071702;28;20097;-65
2021/05/01 02:55:52;;;;;;;38.35;23.48;;;1.40;99.90;;;;;;2080286;28;20021;-65
2021/05/01 02:56:53;;;;;;;38.67;25.35;;;1.30;99.90;;;;;;2076306;28;20017;-65
2021/05/01 02:57:54;;;;;;;37.47;24.23;;;1.40;99.90;;;;;;2079941;28;20029;-65
2021/05/01 02:58:54;;;;;;;36.17;23.67;;;1.30;99.90;;;;;;2079732;28;20521;-65
2021/05/01 03:00:01;;;;;;;35.90;23.98;;;1.30;99.90;;;;;;2079604;28;20113;-65
2021/05/01 03:01:02;;;;;;;41.10;24.45;;;1.30;99.90;;;;;;2079730;28;20025;-65
2021/05/01 03:02:03;;;;;;;36.00;24.45;;;1.30;99.90;;;;;;2071789;28;20060;-65
2021/05/01 03:03:04;;;;;;;34.70;24.58;;;1.30;99.90;;;;;;2071191;28;20045;-65
2021/05/01 03:04:05;;;;;;;39.95;24.15;;;1.30;99.90;;;;;;2071469;28;20033;-65
2021/05/01 03:05:08;;;;;;;35.45;24.67;;;1.30;99.90;;;;;;2079124;28;20021;-65
2021/05/01 03:06:08;;;;;;;38.17;25.88;;;1.30;99.90;;;;;;2079044;28;20025;-65
2021/05/01 03:07:09;;;;;;;40.33;28.20;;;1.40;99.90;;;;;;2078447;28;20066;-65
2021/05/01 03:08:10;;;;;;;42.03;27.27;;;1.50;99.90;;;;;;2071462;28;20026;-65
2021/05/01 03:09:10;;;;;;;44.55;28.27;;;1.50;99.90;;;;;;2079169;28;20020;-65
2021/05/01 03:10:17;;;;;;;50.15;29.50;;;1.60;99.90;;;;;;2073490;28;20029;-65
2021/05/01 03:11:18;;;;;;;42.42;29.27;;;1.60;99.90;;;;;;2079769;28;20033;-65
2021/05/01 03:12:18;;;;;;;44.45;30.17;;;1.70;99.90;;;;;;2078267;28;20033;-65
2021/05/01 03:13:19;;;;;;;46.85;32.03;;;1.90;99.90;;;;;;2079979;28;20053;-65
2021/05/01 03:14:20;;;;;;;44.35;28.05;;;2.00;99.90;;;;;;2079759;28;20524;-65
2021/05/01 03:15:22;;;;;;;37.63;25.90;;;2.00;99.90;;;;;;2079938;28;20673;-65
2021/05/01 03:16:23;;;;;;;43.90;27.25;;;2.00;99.90;;;;;;2078738;28;20100;-65
2021/05/01 03:17:24;;;;;;;40.13;25.17;;;2.00;99.90;;;;;;2078880;28;20071;-65
2021/05/01 03:18:24;;;;;;;38.28;24.95;;;1.90;99.90;;;;;;2071465;28;20022;-65
2021/05/01 03:19:25;;;;;;;36.50;25.55;;;1.80;99.90;;;;;;2075307;28;20029;-65
2021/05/01 03:20:26;;;;;;;36.75;24.63;;;1.80;99.90;;;;;;2079679;28;20022;-65
2021/05/01 03:21:26;;;;;;;33.17;23.10;;;1.70;99.90;;;;;;2073656;28;20026;-65
2021/05/01 03:22:27;;;;;;;31.52;22.23;;;1.60;99.90;;;;;;2072549;28;20725;-65
2021/05/01 03:23:28;;;;;;;36.35;23.15;;;1.60;99.90;;;;;;2075246;28;20486;-65
2021/05/01 03:24:30;;;;;;;32.78;22.73;;;1.50;99.90;;;;;;2074521;28;20022;-65
2021/05/01 03:25:31;;;;;;;33.97;22.02;;;1.50;99.90;;;;;;2079001;28;20024;-65
2021/05/01 03:26:32;;;;;;;39.47;23.38;;;1.40;99.90;;;;;;2079644;28;20036;-65
2021/05/01 03:27:33;;;;;;;30.83;21.45;;;1.40;99.90;;;;;;2079648;28;20101;-65
2021/05/01 03:28:33;;;;;;;37.03;23.40;;;1.30;99.90;;;;;;2080061;28;20021;-65
2021/05/01 03:29:35;;;;;;;32.80;23.33;;;1.30;99.90;;;;;;2079239;28;20028;-65
2021/05/01 03:30:35;;;;;;;31.90;22.45;;;1.30;99.90;;;;;;2077147;28;20029;-65
2021/05/01 03:31:38;;;;;;;35.03;23.85;;;1.30;99.90;;;;;;2078293;28;20691;-65
2021/05/01 03:32:39;;;;;;;33.53;24.13;;;1.20;99.90;;;;;;2078016;28;20021;-65
2021/05/01 03:33:40;;;;;;;44.47;25.70;;;1.20;99.90;;;;;;2079619;28;20032;-65
2021/05/01 03:34:41;;;;;;;36.75;24.30;;;1.20;99.90;;;;;;2079297;28;20083;-65
2021/05/01 03:35:42;;;;;;;38.53;24.80;;;1.20;99.90;;;;;;2079417;28;20014;-65
2021/05/01 03:36:43;;;;;;;35.88;25.33;;;1.20;99.90;;;;;;2079471;28;20485;-65
2021/05/01 03:37:43;;;;;;;40.50;26.23;;;1.20;99.90;;;;;;2078732;28;20052;-65
2021/05/01 03:38:44;;;;;;;37.53;24.40;;;1.20;99.90;;;;;;2072293;28;20029;-65
2021/05/01 03:39:45;;;;;;;35.90;24.85;;;1.20;99.90;;;;;;2077016;28;20109;-65
2021/05/01 03:40:45;;;;;;;34.05;23.73;;;1.10;99.90;;;;;;2078867;28;20764;-65
2021/05/01 03:41:46;;;;;;;37.20;25.58;;;1.10;99.90;;;;;;2078935;28;20029;-65
2021/05/01 03:42:47;;;;;;;40.28;26.13;;;1.00;99.90;;;;;;2079378;28;20053;-65
2021/05/01 03:43:48;;;;;;;35.53;25.67;;;1.00;99.90;;;;;;2078251;28;20401;-65
2021/05/01 03:44:49;;;;;;;37.83;25.17;;;1.00;99.90;;;;;;2073985;28;20021;-65
2021/05/01 03:45:50;;;;;;;39.47;26.52;;;1.00;99.90;;;;;;2071212;28;20877;-65
2021/05/01 03:46:50;;;;;;;36.78;25.40;;;1.00;99.90;;;;;;2079432;28;20503;-65
2021/05/01 03:47:51;;;;;;;42.17;26.60;;;1.00;99.90;;;;;;2079268;28;20029;-65
2021/05/01 03:48:52;;;;;;;38.25;24.73;;;0.90;99.90;;;;;;2080504;28;20061;-65
2021/05/01 03:49:52;;;;;;;40.17;25.48;;;0.90;99.90;;;;;;2074448;28;20021;-65
2021/05/01 03:50:53;;;;;;;37.38;25.10;;;0.90;99.90;;;;;;2072265;28;20026;-65
2021/05/01 03:51:54;;;;;;;39.67;25.50;;;0.80;99.90;;;;;;2073080;28;20084;-65
2021/05/01 03:52:54;;;;;;;38.40;25.67;;;0.80;99.90;;;;;;2072965;28;20053;-65
2021/05/01 03:53:55;;;;;;;38.53;23.83;;;0.80;99.90;;;;;;2081062;28;20025;-65
2021/05/01 03:54:56;;;;;;;36.85;24.80;;;0.80;99.90;;;;;;2078937;28;20072;-65
2021/05/01 03:55:57;;;;;;;41.10;26.60;;;0.70;99.90;;;;;;2085766;28;20021;-65
2021/05/01 03:56:57;;;;;;;34.55;24.50;;;0.70;99.90;;;;;;2075342;28;20033;-65
2021/05/01 03:57:58;;;;;;;39.17;25.50;;;0.70;99.90;;;;;;2073046;28;20025;-64
2021/05/01 03:58:59;;;;;;;35.95;25.20;;;0.70;99.90;;;;;;2080745;28;20021;-64
2021/05/01 04:00:00;;;;;;;37.58;25.27;;;0.70;99.90;;;;;;2080750;28;20071;-64
2021/05/01 04:01:01;;;;;;;39.15;25.08;;;0.60;99.90;;;;;;2081102;28;20024;-64
2021/05/01 04:02:02;;;;;;;34.70;23.98;;;0.60;99.90;;;;;;2079621;28;20045;-64
2021/05/01 04:03:02;;;;;;;35.15;24.73;;;0.60;99.90;;;;;;2073045;28;20514;-63
2021/05/01 04:04:04;;;;;;;37.60;26.10;;;0.60;99.90;;;;;;2080198;28;20400;-63
2021/05/01 04:05:05;;;;;;;33.63;24.58;;;0.60;99.90;;;;;;2075394;28;20034;-63
2021/05/01 04:06:06;;;;;;;38.03;26.17;;;0.60;99.90;;;;;;2080966;28;20033;-63
2021/05/01 04:07:06;;;;;;;43.63;25.20;;;0.60;99.90;;;;;;2080754;28;20256;-63
2021/05/01 04:08:07;;;;;;;43.30;26.63;;;0.60;99.90;;;;;;2081122;28;20026;-63
2021/05/01 04:09:07;;;;;;;41.92;25.10;;;0.60;99.90;;;;;;2074212;28;20025;-63
2021/05/01 04:10:09;;;;;;;41.67;25.30;;;0.60;99.90;;;;;;2074222;28;20102;-64
2021/05/01 04:11:11;;;;;;;42.58;26.83;;;0.60;99.90;;;;;;2075779;28;20466;-63
2021/05/01 04:12:12;;;;;;;38.33;26.30;;;0.60;99.90;;;;;;2078361;28;20032;-63
2021/05/01 04:13:12;;;;;;;41.53;25.10;;;0.60;99.90;;;;;;2071939;28;20018;-64
2021/05/01 04:14:13;;;;;;;38.70;25.45;;;0.60;99.90;;;;;;2079829;28;20087;-64
2021/05/01 04:15:14;;;;;;;38.20;24.67;;;0.70;99.90;;;;;;2073627;28;20532;-64
2021/05/01 04:16:16;;;;;;;42.63;26.40;;;0.70;99.90;;;;;;2077689;28;20029;-64
2021/05/01 04:17:17;;;;;;;37.67;25.73;;;0.70;99.90;;;;;;2080278;28;20080;-64
2021/05/01 04:18:17;;;;;;;41.08;26.25;;;0.70;99.90;;;;;;2080925;28;20026;-64
2021/05/01 04:19:18;;;;;;;38.50;26.55;;;0.60;99.90;;;;;;2079657;28;20021;-64
2021/05/01 04:20:19;;;;;;;40.53;25.33;;;0.70;99.90;;;;;;2080234;28;20080;-64
2021/05/01 04:21:20;;;;;;;45.70;26.35;;;0.60;99.90;;;;;;2079888;28;20048;-64
2021/05/01 04:22:22;;;;;;;38.45;25.67;;;0.60;99.90;;;;;;2074380;28;20568;-64
2021/05/01 04:23:23;;;;;;;;;;;0.60;99.90;;;;;;2076276;28;20021;-64
2021/05/01 04:24:23;;;;;;;44.72;25.30;;;0.60;99.90;;;;;;2075287;28;20574;-64
2021/05/01 04:25:24;;;;;;;44.55;27.00;;;0.60;99.90;;;;;;2080822;28;20477;-64
2021/05/01 04:26:25;;;;;;;45.53;26.48;;;0.60;99.90;;;;;;2080786;28;20024;-64
2021/05/01 04:27:25;;;;;;;44.45;26.83;;;0.60;99.90;;;;;;2080624;28;20683;-64
2021/05/01 04:28:27;;;;;;;38.45;25.63;;;0.60;99.90;;;;;;2080766;28;20020;-64
2021/05/01 04:29:27;;;;;;;42.85;26.73;;;0.70;99.90;;;;;;2080505;28;20025;-64
2021/05/01 04:30:28;;;;;;;37.55;26.10;;;0.70;99.90;;;;;;2080875;28;20097;-64
2021/05/01 04:31:29;;;;;;;46.92;27.63;;;0.70;99.90;;;;;;2074008;28;20645;-64
2021/05/01 04:32:30;;;;;;;45.30;28.42;;;0.70;99.90;;;;;;2072390;28;20022;-64
2021/05/01 04:33:31;;;;;;;40.67;28.52;;;0.70;99.90;;;;;;2074775;28;20018;-64
2021/05/01 04:34:32;;;;;;;45.65;27.73;;;0.70;99.90;;;;;;2074585;28;20025;-64
2021/05/01 04:35:32;;;;;;;43.05;27.85;;;0.70;99.90;;;;;;2080758;28;20144;-64
2021/05/01 04:36:33;;;;;;;41.10;27.25;;;0.70;99.90;;;;;;2079864;28;20441;-64
2021/05/01 04:37:33;;;;;;;44.38;27.45;;;0.60;99.90;;;;;;2080217;28;20083;-64
2021/05/01 04:38:34;;;;;;;41.03;28.17;;;0.70;99.90;;;;;;2077216;28;20147;-64
2021/05/01 04:39:35;;;;;;;44.85;28.77;;;0.70;99.90;;;;;;2074183;28;20044;-64
2021/05/01 04:40:36;;;;;;;43.25;28.58;;;0.70;99.90;;;;;;2078995;28;20021;-64
2021/05/01 04:41:37;;;;;;;46.72;28.20;;;0.70;99.90;;;;;;2079866;28;20025;-64
2021/05/01 04:42:45;;;;;;;43.78;28.80;;;0.60;99.90;;;;;;2071748;28;20030;-64
2021/05/01 04:43:46;;;;;;;41.72;26.65;;;0.60;99.90;;;;;;2080311;28;20028;-64
2021/05/01 04:44:47;;;;;;;39.22;27.33;;;0.60;99.90;;;;;;2080522;28;20010;-64
2021/05/01 04:45:48;;;;;;;41.83;26.80;;;0.60;99.90;;;;;;2080658;28;20029;-64
2021/05/01 04:46:50;;;;;;;44.53;28.17;;;0.60;99.90;;;;;;2077372;28;20021;-64
2021/05/01 04:47:52;;;;;;;45.17;29.38;;;0.50;99.90;;;;;;2072098;28;20253;-64
2021/05/01 04:48:52;;;;;;;39.17;27.92;;;0.60;99.90;;;;;;2079359;28;20029;-64
2021/05/01 04:49:53;;;;;;;46.78;28.83;;;0.50;99.90;;;;;;2075078;28;20092;-64
2021/05/01 04:50:54;;;;;;;46.42;28.30;;;0.50;99.90;;;;;;2080679;28;20033;-64
2021/05/01 04:51:55;;;;;;;43.45;28.15;;;0.50;99.90;;;;;;2079748;28;20112;-64
2021/05/01 04:52:55;;;;;;;43.78;30.17;;;0.50;99.90;;;;;;2079943;28;20049;-64
2021/05/01 04:53:56;;;;;;;44.22;29.15;;;0.50;99.90;;;;;;2080379;28;20063;-64
2021/05/01 04:54:59;;;;;;;45.53;29.27;;;0.50;99.90;;;;;;2080693;28;20052;-64
2021/05/01 04:56:00;;;;;;;43.72;29.70;;;0.50;99.90;;;;;;2086462;28;20539;-64
2021/05/01 04:57:01;;;;;;;44.88;29.15;;;0.50;99.90;;;;;;2073297;28;20056;-64
2021/05/01 04:58:01;;;;;;;46.38;29.30;;;0.50;99.90;;;;;;2071602;28;20048;-64
2021/05/01 04:59:03;;;;;;;46.20;30.58;;;0.50;99.90;;;;;;2073050;28;20040;-64
2021/05/01 05:00:04;;;;;;;46.90;29.20;;;0.50;99.90;;;;;;2073064;28;20040;-64
2021/05/01 05:01:05;;;;;;;44.13;30.52;;;0.50;99.90;;;;;;2072188;28;20038;-64
2021/05/01 05:02:06;;;;;;;44.50;28.63;;;0.50;99.90;;;;;;2076802;28;20050;-64
2021/05/01 05:03:07;;;;;;;45.88;29.58;;;0.50;99.90;;;;;;2072400;28;20508;-64
2021/05/01 05:04:08;;;;;;;47.83;29.63;;;0.50;99.90;;;;;;2072125;28;20053;-64
2021/05/01 05:05:11;;;;;;;45.85;29.88;;;0.60;99.90;;;;;;2074585;28;20030;-64
2021/05/01 05:06:11;;;;;;;54.67;31.70;;;0.60;99.90;;;;;;2079772;28;20021;-64
2021/05/01 05:07:12;;;;;;;43.88;29.92;;;0.50;99.90;;;;;;2079881;28;20485;-64
2021/05/01 05:08:13;;;;;;;48.58;29.95;;;0.60;99.90;;;;;;2084136;28;20028;-64
2021/05/01 05:09:13;;;;;;;48.80;30.65;;;0.60;99.90;;;;;;2071798;28;20489;-64
2021/05/01 05:10:15;;;;;;;45.25;28.90;;;0.70;99.90;;;;;;2073415;28;20121;-65
2021/05/01 05:11:15;;;;;;;44.72;30.48;;;0.70;99.90;;;;;;2080013;28;20432;-67
2021/05/01 05:12:16;;;;;;;47.25;31.13;;;0.70;99.90;;;;;;2079482;28;20025;-65
2021/05/01 05:13:24;;;;;;;53.63;31.08;;;0.70;99.90;;;;;;2080809;28;20079;-64
2021/05/01 05:14:25;;;;;;;48.13;30.70;;;0.80;99.90;;;;;;2080355;28;20395;-63